createdAt,value
2023-02-08T00:00:10.820Z,57.85
2023-02-08T00:05:12.631Z,49.15
2023-02-08T00:10:14.645Z,66.25
2023-02-08T00:15:16.561Z,60.53
2023-02-08T00:20:18.551Z,64.13
2023-02-08T00:25:21.012Z,51.70
2023-02-08T00:30:22.981Z,53.97
2023-02-08T00:35:24.862Z,63.38
2023-02-08T00:40:27.860Z,66.40
2023-02-08T00:45:29.831Z,66.68
2023-02-08T00:50:32.107Z,58.60
2023-02-08T00:55:34.400Z,64.05
2023-02-08T01:00:36.317Z,54.00
2023-02-08T01:05:40.931Z,52.70
2023-02-08T01:10:43.200Z,56.75
2023-02-08T01:15:45.121Z,52.92
2023-02-08T01:20:46.982Z,53.90
2023-02-08T01:25:48.845Z,50.22
2023-02-08T01:30:52.609Z,59.63
2023-02-08T01:35:55.891Z,52.20
2023-02-08T01:40:57.773Z,55.53
2023-02-08T01:45:59.909Z,51.03
2023-02-08T01:51:21.459Z,44.75
2023-02-08T01:56:36.261Z,52.53
2023-02-08T02:01:40.140Z,54.03
2023-02-08T02:06:48.799Z,52.05
2023-02-08T02:11:53.465Z,60.15
2023-02-08T02:16:55.401Z,47.65
2023-02-08T02:22:25.234Z,58.35
2023-02-08T02:27:55.141Z,59.58
2023-02-08T02:33:24.196Z,51.33
2023-02-08T02:38:37.055Z,44.67
2023-02-08T02:43:52.148Z,39.63
2023-02-08T02:49:01.033Z,44.90
2023-02-08T02:54:16.125Z,36.35
2023-02-08T02:59:19.799Z,41.13
2023-02-08T03:04:33.903Z,42.97
2023-02-08T03:10:00.287Z,38.22
2023-02-08T03:15:28.775Z,30.05
2023-02-08T03:20:58.180Z,42.47
2023-02-08T03:26:06.977Z,36.20
2023-02-08T03:31:19.536Z,43.60
2023-02-08T03:36:38.792Z,37.72
2023-02-08T03:46:52.291Z,34.72
2023-02-08T03:51:58.543Z,37.22
2023-02-08T03:57:18.522Z,38.70
2023-02-08T04:02:24.854Z,41.08
2023-02-08T04:07:26.779Z,42.83
2023-02-08T04:12:28.609Z,39.88
2023-02-08T04:17:30.480Z,52.72
2023-02-08T04:22:33.652Z,43.13
2023-02-08T04:27:35.489Z,44.30
2023-02-08T04:32:37.360Z,44.13
2023-02-08T04:37:39.194Z,45.38
2023-02-08T04:42:41.044Z,44.55
2023-02-08T04:47:42.861Z,42.42
2023-02-08T04:52:44.699Z,42.00
2023-02-08T04:57:46.562Z,44.63
2023-02-08T05:02:48.410Z,46.20
2023-02-08T05:07:50.327Z,53.63
2023-02-08T05:12:52.184Z,50.72
2023-02-08T05:17:54.045Z,64.40
2023-02-08T05:22:56.197Z,57.25
2023-02-08T05:27:59.765Z,55.50
2023-02-08T05:33:01.674Z,60.00
2023-02-08T05:38:03.684Z,57.97
2023-02-08T05:43:05.507Z,58.13
2023-02-08T05:48:07.353Z,49.92
2023-02-08T05:53:09.323Z,53.97
2023-02-08T05:58:11.205Z,65.63
2023-02-08T06:03:13.141Z,66.78
2023-02-08T06:08:15.431Z,74.43
2023-02-08T06:13:17.337Z,79.38
2023-02-08T06:18:19.190Z,81.30
2023-02-08T06:23:21.821Z,76.72
2023-02-08T06:28:23.731Z,79.97
2023-02-08T06:33:25.579Z,76.22
2023-02-08T06:38:27.508Z,85.03
2023-02-08T06:43:29.373Z,83.57
2023-02-08T06:48:31.874Z,79.63
2023-02-08T06:53:33.707Z,83.47
2023-02-08T06:58:35.561Z,90.60
2023-02-08T07:03:37.437Z,93.15
2023-02-08T07:08:39.471Z,87.63
2023-02-08T07:13:41.631Z,92.25
2023-02-08T07:18:43.620Z,98.07
2023-02-08T07:23:45.500Z,83.70
2023-02-08T07:28:47.339Z,86.32
2023-02-08T07:33:49.581Z,84.22
2023-02-08T07:38:51.724Z,90.30
2023-02-08T07:43:53.934Z,83.70
2023-02-08T07:48:55.924Z,99.03
2023-02-08T07:53:57.786Z,82.55
2023-02-08T07:58:59.865Z,87.10
2023-02-08T08:04:01.722Z,81.43
2023-02-08T08:09:03.644Z,85.35
2023-02-08T08:14:05.531Z,75.05
2023-02-08T08:19:07.395Z,69.07
2023-02-08T08:24:09.307Z,83.43
2023-02-08T08:29:11.157Z,86.13
2023-02-08T08:34:13.045Z,77.65
2023-02-08T08:39:14.882Z,88.72
2023-02-08T08:44:16.765Z,80.28
2023-02-08T08:49:18.596Z,88.32
2023-02-08T08:54:21.048Z,63.58
2023-02-08T08:59:22.965Z,65.55
2023-02-08T09:04:25.292Z,62.35
2023-02-08T09:09:27.276Z,66.30
2023-02-08T09:14:29.224Z,62.65
2023-02-08T09:19:31.293Z,61.47
2023-02-08T09:24:34.039Z,54.80
2023-02-08T09:29:35.924Z,55.00
2023-02-08T09:34:37.774Z,57.63
2023-02-08T09:39:39.832Z,66.10
2023-02-08T09:45:12.511Z,52.38
2023-02-08T09:50:20.417Z,57.00
2023-02-08T09:55:36.386Z,56.90
2023-02-08T10:00:44.378Z,59.75
2023-02-08T10:05:46.725Z,49.75
2023-02-08T10:11:07.024Z,50.67
2023-02-08T10:16:21.487Z,50.83
2023-02-08T10:21:51.990Z,50.72
2023-02-08T10:27:22.908Z,55.40
2023-02-08T10:32:46.367Z,48.88
2023-02-08T10:37:48.354Z,54.78
2023-02-08T10:43:22.673Z,44.63
2023-02-08T10:48:38.566Z,53.58
2023-02-08T10:53:40.436Z,49.72
2023-02-08T10:58:42.388Z,54.17
2023-02-08T11:04:05.281Z,50.65
2023-02-08T11:09:19.961Z,53.92
2023-02-08T11:14:27.125Z,53.90
2023-02-08T11:19:35.392Z,46.15
2023-02-08T11:24:43.608Z,48.15
2023-02-08T11:29:45.532Z,42.28
2023-02-08T11:34:47.463Z,40.08
2023-02-08T11:39:56.137Z,41.38
2023-02-08T11:44:59.944Z,41.80
2023-02-08T11:50:04.860Z,46.63
2023-02-08T11:55:18.860Z,44.90
2023-02-08T12:00:26.754Z,40.72
2023-02-08T12:05:43.058Z,40.40
2023-02-08T12:10:55.109Z,42.65
2023-02-08T12:16:05.797Z,39.85
2023-02-08T12:21:40.040Z,48.20
2023-02-08T12:27:09.666Z,40.03
2023-02-08T12:32:36.393Z,39.85
2023-02-08T12:37:59.607Z,46.13
2023-02-08T12:43:14.831Z,33.63
2023-02-08T12:48:47.636Z,44.72
2023-02-08T12:53:56.347Z,41.72
2023-02-08T12:59:11.844Z,41.35
2023-02-08T13:04:33.150Z,33.45
2023-02-08T13:14:56.113Z,40.80
2023-02-08T13:20:07.051Z,37.17
2023-02-08T13:25:22.829Z,37.30
2023-02-08T13:30:24.855Z,39.38
2023-02-08T13:35:30.732Z,38.35
2023-02-08T13:40:35.627Z,36.60
2023-02-08T13:45:44.939Z,29.67
2023-02-08T13:50:47.143Z,35.93
2023-02-08T13:55:55.944Z,27.83
2023-02-08T14:00:57.752Z,27.92
2023-02-08T14:06:06.562Z,31.17
2023-02-08T14:11:14.818Z,32.65
2023-02-08T14:16:31.242Z,28.48
2023-02-08T14:21:43.248Z,29.00
2023-02-08T14:26:45.552Z,25.30
2023-02-08T14:31:47.539Z,21.70
2023-02-08T14:37:02.421Z,31.48
2023-02-08T14:42:08.917Z,30.63
2023-02-08T14:47:26.846Z,34.28
2023-02-08T14:52:29.738Z,37.13
2023-02-08T14:57:37.034Z,34.80
2023-02-08T15:02:43.297Z,37.33
2023-02-08T15:07:58.076Z,38.35
2023-02-08T15:13:06.457Z,37.25
2023-02-08T15:18:18.980Z,41.50
2023-02-08T15:23:24.753Z,41.17
2023-02-08T15:28:29.580Z,43.38
2023-02-08T15:33:32.408Z,39.97
2023-02-08T15:38:38.731Z,35.45
2023-02-08T15:43:42.428Z,36.80
2023-02-08T15:48:46.686Z,37.17
2023-02-08T15:53:51.707Z,28.58
2023-02-08T15:58:57.957Z,26.55
2023-02-08T16:04:06.148Z,35.10
2023-02-08T16:09:19.460Z,34.30
2023-02-08T16:14:28.769Z,34.95
2023-02-08T16:19:33.712Z,43.30
2023-02-08T16:24:35.521Z,48.05
2023-02-08T16:29:41.092Z,50.17
2023-02-08T16:34:43.048Z,39.67
2023-02-08T16:39:59.528Z,32.17
2023-02-08T16:45:20.357Z,37.22
2023-02-08T16:50:27.451Z,43.55
2023-02-08T16:55:36.369Z,37.33
2023-02-08T17:00:38.196Z,42.03
2023-02-08T17:05:41.120Z,45.95
2023-02-08T17:10:44.447Z,47.20
2023-02-08T17:15:48.655Z,37.63
2023-02-08T17:20:57.433Z,43.40
2023-02-08T17:25:59.312Z,38.23
2023-02-08T17:31:01.783Z,38.90
2023-02-08T17:36:03.784Z,56.03
2023-02-08T17:41:13.456Z,43.97
2023-02-08T17:46:21.223Z,45.20
2023-02-08T17:51:24.386Z,44.40
2023-02-08T17:56:29.160Z,46.08
2023-02-08T18:01:32.086Z,47.65
2023-02-08T18:06:34.046Z,52.25
2023-02-08T18:11:35.844Z,58.17
2023-02-08T18:16:37.776Z,51.72
2023-02-08T18:21:39.625Z,52.47
2023-02-08T18:26:41.484Z,72.45
2023-02-08T18:31:43.778Z,62.70
2023-02-08T18:36:45.924Z,52.92
2023-02-08T18:41:47.779Z,59.22
2023-02-08T18:46:49.768Z,47.83
2023-02-08T18:51:51.659Z,55.75
2023-02-08T18:56:56.662Z,57.45
2023-02-08T19:02:03.272Z,61.38
2023-02-08T19:07:06.868Z,50.78
2023-02-08T19:12:09.376Z,66.13
2023-02-08T19:17:14.372Z,59.58
2023-02-08T19:22:18.215Z,54.85
2023-02-08T19:27:20.697Z,44.65
2023-02-08T19:32:23.931Z,56.90
2023-02-08T19:37:26.255Z,66.35
2023-02-08T19:42:28.549Z,54.08
2023-02-08T19:47:50.045Z,49.22
2023-02-08T19:52:52.857Z,56.05
2023-02-08T19:57:58.222Z,41.90
2023-02-08T20:03:07.803Z,42.88
2023-02-08T20:08:19.939Z,38.08
2023-02-08T20:13:24.384Z,32.67
2023-02-08T20:18:26.467Z,29.85
2023-02-08T20:23:28.668Z,31.05
2023-02-08T20:28:30.631Z,22.55
2023-02-08T20:33:32.506Z,22.27
2023-02-08T20:38:34.589Z,26.98
2023-02-08T20:43:37.140Z,20.80
2023-02-08T20:48:39.202Z,23.75
2023-02-08T20:53:42.754Z,23.60
2023-02-08T20:58:45.658Z,21.48
2023-02-08T21:03:48.173Z,23.05
2023-02-08T21:08:54.581Z,31.80
2023-02-08T21:13:57.872Z,29.48
2023-02-08T21:19:00.136Z,20.05
2023-02-08T21:24:02.048Z,19.15
2023-02-08T21:29:07.303Z,26.45
2023-02-08T21:34:09.366Z,26.40
2023-02-08T21:39:11.288Z,30.90
2023-02-08T21:44:13.532Z,22.45
2023-02-08T21:49:38.709Z,20.98
2023-02-08T21:54:46.691Z,23.67
2023-02-08T21:59:50.518Z,20.27
2023-02-08T22:05:13.568Z,19.42
2023-02-08T22:10:17.833Z,20.90
2023-02-08T22:15:22.481Z,16.30
2023-02-08T22:20:25.213Z,18.52
2023-02-08T22:25:27.146Z,15.25
2023-02-08T22:30:29.034Z,21.67
2023-02-08T22:35:30.990Z,21.73
2023-02-08T22:40:32.923Z,18.70
2023-02-08T22:45:34.906Z,15.93
2023-02-08T22:50:39.950Z,19.85
2023-02-08T22:56:04.509Z,18.80
2023-02-08T23:01:14.743Z,21.13
2023-02-08T23:06:17.695Z,20.25
2023-02-08T23:11:20.876Z,17.50
2023-02-08T23:16:23.314Z,20.70
2023-02-08T23:21:25.275Z,16.92
2023-02-08T23:26:27.129Z,18.60
2023-02-08T23:31:29.225Z,17.88
2023-02-08T23:36:31.112Z,19.73
2023-02-08T23:41:33.253Z,15.23
2023-02-08T23:46:35.152Z,17.33
2023-02-08T23:51:36.996Z,20.05
2023-02-08T23:56:38.998Z,13.85
